createdAt,value
2023-02-05T00:00:06.004Z,13.90
2023-02-05T00:01:05.993Z,14.70
2023-02-05T00:02:06.017Z,15.60
2023-02-05T00:03:05.990Z,16.10
2023-02-05T00:04:06.029Z,15.90
2023-02-05T00:05:05.964Z,17.40
2023-02-05T00:06:06.909Z,16.50
2023-02-05T00:07:05.925Z,17.60
2023-02-05T00:08:05.927Z,17.50
2023-02-05T00:09:05.918Z,18.20
2023-02-05T00:10:05.945Z,17.10
2023-02-05T00:11:05.849Z,17.80
2023-02-05T00:12:05.863Z,17.70
2023-02-05T00:13:05.862Z,17.90
2023-02-05T00:14:05.870Z,17.50
2023-02-05T00:15:05.890Z,17.10
2023-02-05T00:16:05.794Z,16.70
2023-02-05T00:17:05.938Z,15.50
2023-02-05T00:18:05.851Z,15.50
2023-02-05T00:19:05.882Z,16.10
2023-02-05T00:20:05.907Z,15.70
2023-02-05T00:21:05.782Z,16.00
2023-02-05T00:22:05.776Z,15.80
2023-02-05T00:23:05.776Z,16.50
2023-02-05T00:24:05.811Z,14.30
2023-02-05T00:25:05.778Z,14.00
2023-02-05T00:26:05.788Z,14.40
2023-02-05T00:27:05.822Z,14.50
2023-02-05T00:28:05.867Z,15.00
2023-02-05T00:29:05.766Z,14.60
2023-02-05T00:30:05.753Z,15.30
2023-02-05T00:31:05.827Z,15.70
2023-02-05T00:32:05.806Z,15.80
2023-02-05T00:33:05.702Z,15.70
2023-02-05T00:34:05.671Z,16.00
2023-02-05T00:35:05.720Z,15.80
2023-02-05T00:36:05.675Z,16.80
2023-02-05T00:37:05.761Z,16.40
2023-02-05T00:38:05.823Z,17.00
2023-02-05T00:39:05.661Z,17.70
2023-02-05T00:40:05.727Z,17.10
2023-02-05T00:41:05.654Z,18.60
2023-02-05T00:42:05.630Z,19.50
2023-02-05T00:43:05.618Z,19.80
2023-02-05T00:44:05.624Z,20.50
2023-02-05T00:45:05.714Z,18.90
2023-02-05T00:46:05.764Z,19.00
2023-02-05T00:47:05.573Z,19.50
2023-02-05T00:48:05.632Z,20.10
2023-02-05T00:49:05.569Z,21.60
2023-02-05T00:50:05.578Z,21.50
2023-02-05T00:51:05.589Z,22.30
2023-02-05T00:52:05.546Z,21.60
2023-02-05T00:53:05.562Z,20.40
2023-02-05T00:54:05.534Z,19.90
2023-02-05T00:55:05.542Z,20.10
2023-02-05T00:56:05.584Z,17.90
2023-02-05T00:57:05.583Z,18.50
2023-02-05T00:58:05.670Z,18.30
2023-02-05T00:59:05.492Z,19.80
2023-02-05T01:00:05.498Z,20.30
2023-02-05T01:01:05.585Z,20.20
2023-02-05T01:02:05.488Z,22.10
2023-02-05T01:03:05.556Z,22.10
2023-02-05T01:04:05.529Z,22.90
2023-02-05T01:05:05.481Z,22.30
2023-02-05T01:06:05.508Z,23.00
2023-02-05T01:07:05.441Z,23.50
2023-02-05T01:08:05.674Z,22.40
2023-02-05T01:09:05.498Z,22.10
2023-02-05T01:10:05.432Z,19.80
2023-02-05T01:11:05.432Z,19.10
2023-02-05T01:12:05.397Z,18.70
2023-02-05T01:13:05.454Z,19.00
2023-02-05T01:14:05.411Z,18.60
2023-02-05T01:15:05.420Z,18.20
2023-02-05T01:16:05.541Z,18.70
2023-02-05T01:17:05.380Z,19.60
2023-02-05T01:18:05.386Z,19.80
2023-02-05T01:19:05.393Z,19.10
2023-02-05T01:20:05.360Z,18.80
2023-02-05T01:21:05.412Z,19.30
2023-02-05T01:22:05.360Z,19.20
2023-02-05T01:23:05.319Z,17.30
2023-02-05T01:24:05.323Z,17.60
2023-02-05T01:25:05.307Z,17.80
2023-02-05T01:26:05.342Z,17.70
2023-02-05T01:27:05.308Z,18.80
2023-02-05T01:28:05.454Z,19.10
2023-02-05T01:29:05.306Z,18.70
2023-02-05T01:30:05.290Z,18.50
2023-02-05T01:31:05.426Z,19.40
2023-02-05T01:32:05.279Z,18.60
2023-02-05T01:33:05.277Z,18.80
2023-02-05T01:34:05.321Z,18.50
2023-02-05T01:35:05.286Z,17.60
2023-02-05T01:36:05.360Z,18.80
2023-02-05T01:37:05.267Z,18.90
2023-02-05T01:38:05.207Z,19.10
2023-02-05T01:39:05.267Z,17.90
2023-02-05T01:40:05.196Z,17.40
2023-02-05T01:41:05.229Z,17.30
2023-02-05T01:42:05.198Z,18.60
2023-02-05T01:43:05.201Z,17.70
2023-02-05T01:44:05.161Z,17.90
2023-02-05T01:45:05.206Z,17.30
2023-02-05T01:46:05.278Z,18.30
2023-02-05T01:47:05.181Z,18.40
2023-02-05T01:48:05.146Z,17.70
2023-02-05T01:49:05.137Z,17.80
2023-02-05T01:50:05.239Z,18.60
2023-02-05T01:51:05.162Z,18.90
2023-02-05T01:52:05.114Z,17.60
2023-02-05T01:53:05.110Z,17.70
2023-02-05T01:54:05.107Z,18.90
2023-02-05T01:55:05.082Z,18.10
2023-02-05T01:56:05.195Z,17.20
2023-02-05T01:57:05.105Z,17.30
2023-02-05T01:58:05.083Z,17.80
2023-02-05T01:59:05.050Z,15.80
2023-02-05T02:00:05.078Z,16.80
2023-02-05T02:01:05.076Z,16.40
2023-02-05T02:02:05.046Z,15.60
2023-02-05T02:03:05.075Z,16.00
2023-02-05T02:04:05.037Z,15.80
2023-02-05T02:05:05.073Z,15.20
2023-02-05T02:06:05.077Z,14.80
2023-02-05T02:07:04.990Z,14.20
2023-02-05T02:08:05.020Z,14.80
2023-02-05T02:09:05.050Z,15.80
2023-02-05T02:10:05.052Z,16.70
2023-02-05T02:11:05.012Z,17.20
2023-02-05T02:12:04.978Z,17.40
2023-02-05T02:13:05.078Z,17.30
2023-02-05T02:14:04.961Z,15.50
2023-02-05T02:15:04.963Z,15.70
2023-02-05T02:16:05.037Z,15.80
2023-02-05T02:17:04.950Z,15.80
2023-02-05T02:18:04.958Z,15.50
2023-02-05T02:19:04.900Z,16.60
2023-02-05T02:20:04.901Z,15.60
2023-02-05T02:21:04.929Z,14.80
2023-02-05T02:22:04.926Z,15.50
2023-02-05T02:23:04.992Z,15.70
2023-02-05T02:24:04.887Z,15.70
2023-02-05T02:25:04.904Z,16.80
2023-02-05T02:26:04.907Z,16.50
2023-02-05T02:27:04.860Z,16.50
2023-02-05T02:28:04.958Z,17.50
2023-02-05T02:29:04.879Z,16.90
2023-02-05T02:30:04.910Z,16.30
2023-02-05T02:31:05.183Z,16.40
2023-02-05T02:32:04.834Z,16.30
2023-02-05T02:33:04.856Z,16.60
2023-02-05T02:34:04.924Z,16.30
2023-02-05T02:35:04.842Z,15.70
2023-02-05T02:36:05.103Z,16.60
2023-02-05T02:37:04.923Z,16.70
2023-02-05T02:38:04.898Z,15.60
2023-02-05T02:39:04.968Z,15.60
2023-02-05T02:40:04.946Z,13.00
2023-02-05T02:41:04.877Z,12.80
2023-02-05T02:42:04.745Z,13.60
2023-02-05T02:43:04.733Z,13.70
2023-02-05T02:44:04.756Z,13.60
2023-02-05T02:45:04.748Z,13.80
2023-02-05T02:46:04.715Z,13.80
2023-02-05T02:47:04.753Z,14.00
2023-02-05T02:48:04.703Z,13.00
2023-02-05T02:49:04.730Z,13.70
2023-02-05T02:50:04.735Z,14.10
2023-02-05T02:51:04.748Z,13.50
2023-02-05T02:52:04.890Z,14.00
2023-02-05T02:53:04.695Z,13.50
2023-02-05T02:54:04.663Z,13.80
2023-02-05T02:55:04.683Z,13.80
2023-02-05T02:56:04.699Z,13.50
2023-02-05T02:57:04.722Z,13.70
2023-02-05T02:58:04.656Z,13.90
2023-02-05T02:59:04.743Z,13.90
2023-02-05T03:00:04.742Z,15.20
2023-02-05T03:01:04.699Z,15.10
2023-02-05T03:02:04.677Z,14.30
2023-02-05T03:03:04.665Z,14.60
2023-02-05T03:04:04.610Z,15.20
2023-02-05T03:05:04.648Z,15.80
2023-02-05T03:06:04.638Z,16.70
2023-02-05T03:07:04.727Z,15.70
2023-02-05T03:08:04.675Z,16.20
2023-02-05T03:09:04.721Z,14.80
2023-02-05T03:10:04.592Z,15.60
2023-02-05T03:11:04.586Z,15.80
2023-02-05T03:12:05.688Z,14.50
2023-02-05T03:13:04.589Z,15.40
2023-02-05T03:14:04.560Z,15.20
2023-02-05T03:15:04.576Z,15.50
2023-02-05T03:16:04.663Z,15.40
2023-02-05T03:17:04.573Z,15.80
2023-02-05T03:18:04.595Z,15.70
2023-02-05T03:19:04.603Z,15.50
2023-02-05T03:20:04.519Z,15.50
2023-02-05T03:21:04.510Z,15.60
2023-02-05T03:22:04.625Z,16.20
2023-02-05T03:23:04.600Z,16.60
2023-02-05T03:24:04.528Z,16.40
2023-02-05T03:25:04.489Z,15.90
2023-02-05T03:26:04.701Z,15.90
2023-02-05T03:27:04.625Z,15.70
2023-02-05T03:28:04.554Z,16.30
2023-02-05T03:29:04.474Z,17.10
2023-02-05T03:30:04.437Z,17.40
2023-02-05T03:31:04.520Z,17.60
2023-02-05T03:32:04.446Z,16.90
2023-02-05T03:33:05.478Z,17.20
2023-02-05T03:34:04.488Z,16.50
2023-02-05T03:35:04.414Z,17.00
2023-02-05T03:36:04.411Z,17.40
2023-02-05T03:37:04.460Z,17.10
2023-02-05T03:38:04.483Z,16.40
2023-02-05T03:39:04.436Z,18.00
2023-02-05T03:40:04.412Z,18.10
2023-02-05T03:41:04.437Z,17.00
2023-02-05T03:42:04.414Z,17.30
2023-02-05T03:43:04.471Z,17.70
2023-02-05T03:44:04.380Z,17.60
2023-02-05T03:45:04.458Z,16.60
2023-02-05T03:46:04.365Z,17.80
2023-02-05T03:47:04.425Z,17.40
2023-02-05T03:48:04.398Z,18.20
2023-02-05T03:49:04.401Z,17.70
2023-02-05T03:50:04.327Z,17.60
2023-02-05T03:51:04.300Z,17.50
2023-02-05T03:52:04.295Z,17.60
2023-02-05T03:53:04.319Z,17.90
2023-02-05T03:54:04.289Z,17.90
2023-02-05T03:55:04.350Z,18.00
2023-02-05T03:56:04.242Z,17.90
2023-02-05T03:57:04.289Z,17.20
2023-02-05T03:58:05.225Z,18.20
2023-02-05T03:59:04.225Z,16.80
2023-02-05T04:00:04.185Z,17.90
2023-02-05T04:01:04.269Z,18.90
2023-02-05T04:02:04.412Z,20.50
2023-02-05T04:03:04.247Z,20.40
2023-02-05T04:04:04.212Z,20.00
2023-02-05T04:05:04.181Z,18.50
2023-02-05T04:06:04.179Z,19.20
2023-02-05T04:07:04.164Z,19.10
2023-02-05T04:08:04.180Z,19.10
2023-02-05T04:09:04.137Z,19.10
2023-02-05T04:10:04.194Z,19.40
2023-02-05T04:11:04.114Z,19.40
2023-02-05T04:12:04.168Z,19.20
2023-02-05T04:13:04.112Z,18.90
2023-02-05T04:14:04.124Z,18.80
2023-02-05T04:15:04.113Z,19.50
2023-02-05T04:16:04.154Z,19.50
2023-02-05T04:17:04.108Z,19.20
2023-02-05T04:18:04.104Z,18.20
2023-02-05T04:19:04.105Z,18.60
2023-02-05T04:20:04.147Z,18.00
2023-02-05T04:21:04.117Z,18.00
2023-02-05T04:22:04.034Z,18.20
2023-02-05T04:23:04.094Z,17.90
2023-02-05T04:24:04.086Z,17.60
2023-02-05T04:25:04.056Z,17.60
2023-02-05T04:26:04.110Z,17.80
2023-02-05T04:27:04.234Z,17.70
2023-02-05T04:28:04.178Z,17.90
2023-02-05T04:29:04.049Z,18.50
2023-02-05T04:30:04.016Z,17.90
2023-02-05T04:31:04.047Z,17.80
2023-02-05T04:32:04.090Z,16.20
2023-02-05T04:33:04.112Z,18.10
2023-02-05T04:34:04.971Z,19.10
2023-02-05T04:35:04.045Z,20.00
2023-02-05T04:36:04.092Z,20.30
2023-02-05T04:37:03.932Z,20.10
2023-02-05T04:38:03.952Z,19.80
2023-02-05T04:39:03.960Z,19.60
2023-02-05T04:40:03.912Z,19.30
2023-02-05T04:41:03.982Z,18.90
2023-02-05T04:42:03.922Z,19.30
2023-02-05T04:43:03.966Z,19.50
2023-02-05T04:44:03.898Z,18.70
2023-02-05T04:45:03.872Z,18.40
2023-02-05T04:46:04.140Z,19.30
2023-02-05T04:47:03.853Z,19.20
2023-02-05T04:48:03.880Z,19.40
2023-02-05T04:49:03.843Z,19.90
2023-02-05T04:50:03.812Z,19.70
2023-02-05T04:51:03.810Z,19.60
2023-02-05T04:52:03.836Z,19.50
2023-02-05T04:53:03.923Z,19.20
2023-02-05T04:54:03.880Z,19.00
2023-02-05T04:55:03.803Z,19.10
2023-02-05T04:56:03.780Z,19.20
2023-02-05T04:57:03.788Z,19.00
2023-02-05T04:58:03.840Z,18.80
2023-02-05T04:59:03.770Z,19.80
2023-02-05T05:00:03.743Z,18.90
2023-02-05T05:01:04.826Z,18.70
2023-02-05T05:02:35.672Z,19.10
2023-02-05T05:03:03.732Z,19.30
2023-02-05T05:04:03.749Z,19.50
2023-02-05T05:05:03.725Z,19.00
2023-02-05T05:06:03.713Z,18.80
2023-02-05T05:07:03.698Z,18.50
2023-02-05T05:08:03.707Z,18.60
2023-02-05T05:09:03.709Z,18.70
2023-02-05T05:10:03.678Z,17.80
2023-02-05T05:11:03.666Z,17.80
2023-02-05T05:12:03.663Z,16.70
2023-02-05T05:13:03.653Z,16.20
2023-02-05T05:14:03.675Z,15.90
2023-02-05T05:15:03.640Z,15.80
2023-02-05T05:16:03.696Z,15.00
2023-02-05T05:17:03.688Z,14.20
2023-02-05T05:18:03.665Z,14.30
2023-02-05T05:19:03.647Z,14.60
2023-02-05T05:20:03.596Z,14.10
2023-02-05T05:21:03.628Z,14.00
2023-02-05T05:22:03.596Z,13.70
2023-02-05T05:23:03.583Z,14.50
2023-02-05T05:24:03.603Z,13.70
2023-02-05T05:25:04.456Z,14.30
2023-02-05T05:26:03.557Z,13.90
2023-02-05T05:27:03.551Z,13.20
2023-02-05T05:28:03.591Z,13.00
2023-02-05T05:29:03.574Z,12.60
2023-02-05T05:30:03.528Z,12.00
2023-02-05T05:31:03.538Z,12.60
2023-02-05T05:32:03.551Z,12.00
2023-02-05T05:33:03.512Z,12.50
2023-02-05T05:34:03.527Z,12.30
2023-02-05T05:35:03.498Z,12.30
2023-02-05T05:36:03.482Z,11.90
2023-02-05T05:37:04.480Z,12.30
2023-02-05T05:38:03.467Z,12.80
2023-02-05T05:39:03.499Z,13.40
2023-02-05T05:40:03.456Z,14.30
2023-02-05T05:41:03.449Z,14.50
2023-02-05T05:42:03.442Z,13.50
2023-02-05T05:43:03.425Z,14.00
2023-02-05T05:44:04.450Z,15.30
2023-02-05T05:45:03.417Z,14.80
2023-02-05T05:46:03.455Z,14.60
2023-02-05T05:47:03.418Z,14.80
2023-02-05T05:48:03.402Z,14.90
2023-02-05T05:49:03.425Z,14.10
2023-02-05T05:50:03.424Z,15.80
2023-02-05T05:51:03.391Z,16.90
2023-02-05T05:52:03.366Z,16.80
2023-02-05T05:53:03.369Z,17.20
2023-02-05T05:54:03.400Z,16.00
2023-02-05T05:55:03.340Z,14.90
2023-02-05T05:56:03.326Z,14.30
2023-02-05T05:57:03.324Z,15.10
2023-02-05T05:58:03.313Z,15.00
2023-02-05T05:59:03.363Z,15.60
2023-02-05T06:00:03.313Z,15.70
2023-02-05T06:01:03.298Z,16.40
2023-02-05T06:02:03.291Z,16.10
2023-02-05T06:03:03.282Z,16.90
2023-02-05T06:04:04.359Z,16.80
2023-02-05T06:05:04.259Z,17.50
2023-02-05T06:06:03.270Z,17.90
2023-02-05T06:07:03.241Z,17.90
2023-02-05T06:08:03.253Z,17.80
2023-02-05T06:09:03.259Z,18.00
2023-02-05T06:10:03.222Z,18.20
2023-02-05T06:11:03.220Z,17.90
2023-02-05T06:12:03.225Z,18.30
2023-02-05T06:13:03.195Z,18.00
2023-02-05T06:14:03.219Z,17.40
2023-02-05T06:15:03.181Z,17.50
2023-02-05T06:16:03.197Z,18.00
2023-02-05T06:17:03.191Z,18.10
2023-02-05T06:18:03.162Z,18.50
2023-02-05T06:19:03.184Z,17.70
2023-02-05T06:20:03.188Z,17.90
2023-02-05T06:21:03.138Z,17.40
2023-02-05T06:22:03.164Z,17.30
2023-02-05T06:23:03.129Z,17.80
2023-02-05T06:24:03.148Z,17.70
2023-02-05T06:25:03.113Z,17.70
2023-02-05T06:26:03.101Z,18.40
2023-02-05T06:27:03.091Z,18.50
2023-02-05T06:28:03.138Z,18.50
2023-02-05T06:29:03.104Z,18.10
2023-02-05T06:30:03.093Z,18.40
2023-02-05T06:31:03.143Z,17.50
2023-02-05T06:32:03.115Z,17.60
2023-02-05T06:33:03.049Z,18.50
2023-02-05T06:34:03.037Z,19.50
2023-02-05T06:35:03.069Z,20.30
2023-02-05T06:36:03.028Z,20.50
2023-02-05T06:37:03.046Z,21.40
2023-02-05T06:38:03.031Z,20.60
2023-02-05T06:39:03.007Z,19.10
2023-02-05T06:40:03.023Z,19.20
2023-02-05T06:41:02.987Z,18.00
2023-02-05T06:42:02.986Z,18.00
2023-02-05T06:43:02.970Z,17.80
2023-02-05T06:44:02.997Z,18.00
2023-02-05T06:45:03.171Z,17.90
2023-02-05T06:46:03.011Z,18.40
2023-02-05T06:47:02.983Z,19.20
2023-02-05T06:48:03.025Z,19.00
2023-02-05T06:49:02.949Z,18.90
2023-02-05T06:50:02.961Z,18.40
2023-02-05T06:51:02.909Z,17.90
2023-02-05T06:52:02.935Z,17.50
2023-02-05T06:53:02.935Z,17.10
2023-02-05T06:54:02.906Z,16.70
2023-02-05T06:55:02.915Z,16.50
2023-02-05T06:56:02.870Z,16.70
2023-02-05T06:57:03.874Z,16.10
2023-02-05T06:58:02.870Z,15.60
2023-02-05T06:59:02.848Z,15.80
2023-02-05T07:00:02.870Z,16.00
2023-02-05T07:01:02.853Z,16.00
2023-02-05T07:02:02.837Z,16.20
2023-02-05T07:03:02.930Z,16.00
2023-02-05T07:04:02.811Z,15.90
2023-02-05T07:05:02.837Z,16.00
2023-02-05T07:06:02.799Z,15.90
2023-02-05T07:07:02.792Z,15.70
2023-02-05T07:08:02.800Z,16.20
2023-02-05T07:09:02.801Z,16.10
2023-02-05T07:10:02.820Z,15.90
2023-02-05T07:11:02.781Z,15.60
2023-02-05T07:12:02.761Z,15.10
2023-02-05T07:13:04.492Z,15.20
2023-02-05T07:14:02.761Z,15.50
2023-02-05T07:15:02.764Z,15.50
2023-02-05T07:16:02.777Z,14.70
2023-02-05T07:17:02.754Z,15.20
2023-02-05T07:18:02.701Z,15.00
2023-02-05T07:19:03.707Z,15.30
2023-02-05T07:20:02.724Z,15.60
2023-02-05T07:21:03.739Z,15.30
2023-02-05T07:22:02.732Z,14.70
2023-02-05T07:23:02.680Z,15.00
2023-02-05T07:24:02.669Z,14.60
2023-02-05T07:25:04.448Z,14.20
2023-02-05T07:26:03.650Z,14.60
2023-02-05T07:27:02.662Z,15.50
2023-02-05T07:28:02.675Z,15.10
2023-02-05T07:29:02.634Z,14.60
2023-02-05T07:30:02.670Z,15.30
2023-02-05T07:31:02.759Z,14.60
2023-02-05T07:32:02.695Z,14.80
2023-02-05T07:33:02.601Z,14.80
2023-02-05T07:34:02.618Z,15.90
2023-02-05T07:35:02.611Z,14.80
2023-02-05T07:36:02.587Z,16.20
2023-02-05T07:37:02.610Z,15.80
2023-02-05T07:38:02.571Z,16.00
2023-02-05T07:39:02.622Z,15.80
2023-02-05T07:40:02.573Z,15.60
2023-02-05T07:41:02.537Z,15.90
2023-02-05T07:42:02.530Z,16.40
2023-02-05T07:43:02.521Z,16.50
2023-02-05T07:44:02.551Z,17.40
2023-02-05T07:45:02.544Z,18.60
2023-02-05T07:46:02.502Z,17.90
2023-02-05T07:47:02.488Z,16.90
2023-02-05T07:48:02.477Z,16.40
2023-02-05T07:49:02.476Z,16.20
2023-02-05T07:50:02.500Z,16.90
2023-02-05T07:51:02.466Z,17.00
2023-02-05T07:52:02.458Z,16.20
2023-02-05T07:53:02.445Z,16.20
2023-02-05T07:54:02.433Z,15.40
2023-02-05T07:55:02.454Z,16.20
2023-02-05T07:56:02.419Z,16.10
2023-02-05T07:57:02.418Z,16.40
2023-02-05T07:58:02.405Z,16.40
2023-02-05T07:59:02.402Z,16.10
2023-02-05T08:00:02.419Z,15.30
2023-02-05T08:01:02.408Z,16.30
2023-02-05T08:02:02.390Z,16.90
2023-02-05T08:03:02.363Z,16.90
2023-02-05T08:04:02.421Z,17.20
2023-02-05T08:05:02.348Z,17.40
2023-02-05T08:06:02.366Z,18.10
2023-02-05T08:07:02.339Z,19.30
2023-02-05T08:08:02.325Z,19.00
2023-02-05T08:09:02.878Z,18.70
2023-02-05T08:10:02.308Z,20.10
2023-02-05T08:11:02.329Z,19.40
2023-02-05T08:12:02.332Z,18.80
2023-02-05T08:13:02.277Z,19.00
2023-02-05T08:14:02.306Z,20.70
2023-02-05T08:15:02.271Z,19.60
2023-02-05T08:16:02.300Z,18.80
2023-02-05T08:17:02.260Z,20.00
2023-02-05T08:18:02.254Z,25.30
2023-02-05T08:19:02.256Z,23.70
2023-02-05T08:20:02.240Z,23.80
2023-02-05T08:21:02.251Z,22.00
2023-02-05T08:22:03.224Z,21.10
2023-02-05T08:23:02.215Z,20.80
2023-02-05T08:24:02.207Z,20.10
2023-02-05T08:25:02.202Z,19.70
2023-02-05T08:26:02.217Z,19.30
2023-02-05T08:27:02.210Z,19.20
2023-02-05T08:28:02.219Z,18.70
2023-02-05T08:29:02.173Z,19.50
2023-02-05T08:30:02.171Z,18.80
2023-02-05T08:31:02.214Z,18.70
2023-02-05T08:32:02.163Z,18.60
2023-02-05T08:33:02.134Z,20.00
2023-02-05T08:34:02.132Z,36.80
2023-02-05T08:35:02.147Z,36.50
2023-02-05T08:36:02.143Z,36.90
2023-02-05T08:37:02.106Z,33.90
2023-02-05T08:38:02.096Z,20.60
2023-02-05T08:39:02.099Z,20.00
2023-02-05T08:40:02.087Z,20.30
2023-02-05T08:41:02.116Z,20.40
2023-02-05T08:42:02.068Z,19.20
2023-02-05T08:43:02.069Z,17.30
2023-02-05T08:44:02.049Z,16.20
2023-02-05T08:45:02.066Z,16.70
2023-02-05T08:46:02.086Z,17.50
2023-02-05T08:47:02.033Z,16.60
2023-02-05T08:48:02.020Z,16.90
2023-02-05T08:49:02.009Z,17.00
2023-02-05T08:50:02.010Z,17.30
2023-02-05T08:51:02.028Z,17.50
2023-02-05T08:52:02.001Z,17.10
2023-02-05T08:53:01.998Z,17.40
2023-02-05T08:54:01.975Z,17.40
2023-02-05T08:55:01.967Z,17.50
2023-02-05T08:56:01.991Z,17.60
2023-02-05T08:57:01.956Z,17.40
2023-02-05T08:58:01.977Z,17.70
2023-02-05T08:59:01.936Z,18.70
2023-02-05T09:00:01.954Z,18.80
2023-02-05T09:01:01.961Z,20.90
2023-02-05T09:02:01.921Z,21.90
2023-02-05T09:03:01.912Z,23.20
2023-02-05T09:04:01.946Z,25.20
2023-02-05T09:05:08.899Z,25.60
2023-02-05T09:06:03.923Z,22.60
2023-02-05T09:07:01.880Z,23.40
2023-02-05T09:08:01.876Z,21.20
2023-02-05T09:09:01.869Z,20.10
2023-02-05T09:10:01.857Z,18.80
2023-02-05T09:11:01.880Z,19.90
2023-02-05T09:12:01.839Z,23.40
2023-02-05T09:13:01.843Z,19.30
2023-02-05T09:14:01.830Z,21.80
2023-02-05T09:15:01.843Z,22.70
2023-02-05T09:16:01.875Z,19.80
2023-02-05T09:17:01.812Z,19.40
2023-02-05T09:18:01.797Z,43.80
2023-02-05T09:19:01.791Z,46.60
2023-02-05T09:20:01.820Z,33.00
2023-02-05T09:21:01.815Z,28.00
2023-02-05T09:22:01.773Z,28.00
2023-02-05T09:23:01.766Z,25.30
2023-02-05T09:24:01.768Z,23.60
2023-02-05T09:25:01.757Z,25.80
2023-02-05T09:26:01.768Z,25.90
2023-02-05T09:27:01.736Z,24.10
2023-02-05T09:28:01.768Z,22.00
2023-02-05T09:29:01.715Z,22.10
2023-02-05T09:30:01.711Z,22.40
2023-02-05T09:31:01.756Z,22.50
2023-02-05T09:32:01.696Z,26.10
2023-02-05T09:33:01.684Z,26.60
2023-02-05T09:34:01.685Z,41.90
2023-02-05T09:35:01.686Z,42.60
2023-02-05T09:36:01.698Z,33.50
2023-02-05T09:37:01.660Z,27.90
2023-02-05T09:38:01.660Z,24.90
2023-02-05T09:39:14.702Z,24.30
2023-02-05T09:40:21.217Z,24.40
2023-02-05T09:41:03.655Z,22.60
2023-02-05T09:42:01.639Z,21.70
2023-02-05T09:43:01.633Z,21.10
2023-02-05T09:44:01.609Z,21.80
2023-02-05T09:45:01.597Z,21.20
2023-02-05T09:46:01.677Z,22.10
2023-02-05T09:47:01.584Z,23.50
2023-02-05T09:48:01.586Z,22.50
2023-02-05T09:49:01.573Z,22.60
2023-02-05T09:50:01.575Z,27.70
2023-02-05T09:51:01.594Z,30.50
2023-02-05T09:52:01.589Z,27.60
2023-02-05T09:53:01.543Z,26.00
2023-02-05T09:54:01.559Z,24.50
2023-02-05T09:55:01.587Z,23.40
2023-02-05T09:56:01.558Z,23.50
2023-02-05T09:57:01.510Z,22.40
2023-02-05T09:58:01.554Z,21.40
2023-02-05T09:59:01.491Z,21.10
2023-02-05T10:00:01.507Z,20.90
2023-02-05T10:01:01.553Z,20.80
2023-02-05T10:02:01.610Z,19.60
2023-02-05T10:03:01.468Z,19.20
2023-02-05T10:04:01.510Z,19.20
2023-02-05T10:05:01.457Z,19.30
2023-02-05T10:06:01.439Z,19.90
2023-02-05T10:07:01.457Z,20.00
2023-02-05T10:08:01.420Z,20.00
2023-02-05T10:09:01.408Z,22.70
2023-02-05T10:10:01.400Z,21.90
2023-02-05T10:11:01.394Z,21.90
2023-02-05T10:12:01.422Z,22.90
2023-02-05T10:13:01.386Z,23.00
2023-02-05T10:14:01.373Z,23.50
2023-02-05T10:15:01.368Z,23.80
2023-02-05T10:16:01.489Z,24.20
2023-02-05T10:17:01.385Z,23.80
2023-02-05T10:18:01.359Z,24.10
2023-02-05T10:19:01.369Z,24.50
2023-02-05T10:20:01.344Z,25.00
2023-02-05T10:21:01.328Z,26.70
2023-02-05T10:22:01.343Z,26.10
2023-02-05T10:23:01.306Z,25.60
2023-02-05T10:24:01.301Z,25.60
2023-02-05T10:25:01.303Z,24.70
2023-02-05T10:26:01.277Z,24.60
2023-02-05T10:27:01.300Z,23.40
2023-02-05T10:28:01.320Z,22.30
2023-02-05T10:29:01.263Z,22.80
2023-02-05T10:30:01.275Z,22.30
2023-02-05T10:31:01.324Z,22.70
2023-02-05T10:32:01.266Z,22.90
2023-02-05T10:33:02.124Z,22.20
2023-02-05T10:34:01.268Z,22.20
2023-02-05T10:35:01.262Z,22.40
2023-02-05T10:36:01.210Z,22.90
2023-02-05T10:37:01.221Z,24.20
2023-02-05T10:38:03.284Z,23.80
2023-02-05T10:39:01.191Z,28.30
2023-02-05T10:40:01.235Z,29.50
2023-02-05T10:41:01.193Z,30.40
2023-02-05T10:42:01.210Z,32.50
2023-02-05T10:43:01.176Z,31.90
2023-02-05T10:44:01.165Z,29.10
2023-02-05T10:45:01.145Z,28.70
2023-02-05T10:46:01.182Z,28.50
2023-02-05T10:47:01.189Z,31.10
2023-02-05T10:48:01.143Z,33.60
2023-02-05T10:49:01.116Z,33.70
2023-02-05T10:50:01.162Z,35.10
2023-02-05T10:51:01.119Z,33.90
2023-02-05T10:52:01.116Z,29.60
2023-02-05T10:53:02.086Z,28.90
2023-02-05T10:54:01.084Z,27.20
2023-02-05T10:55:01.077Z,29.80
2023-02-05T10:56:01.090Z,29.90
2023-02-05T10:57:01.087Z,30.30
2023-02-05T10:58:01.047Z,29.70
2023-02-05T10:59:01.048Z,28.90
2023-02-05T11:00:01.070Z,28.50
2023-02-05T11:01:01.029Z,28.10
2023-02-05T11:03:19.606Z,35.80
2023-02-05T11:04:19.603Z,38.50
2023-02-05T11:05:19.596Z,38.00
2023-02-05T11:06:19.582Z,39.20
2023-02-05T11:07:19.617Z,32.90
2023-02-05T11:08:19.569Z,36.40
2023-02-05T11:09:19.560Z,38.20
2023-02-05T11:10:19.565Z,31.10
2023-02-05T11:11:19.549Z,29.50
2023-02-05T11:12:19.538Z,30.80
2023-02-05T11:13:19.560Z,34.50
2023-02-05T11:14:19.522Z,33.00
2023-02-05T11:15:19.516Z,32.50
2023-02-05T11:16:19.514Z,31.50
2023-02-05T11:17:19.504Z,39.80
2023-02-05T11:18:19.520Z,43.00
2023-02-05T11:19:20.622Z,42.80
2023-02-05T11:20:20.623Z,47.70
2023-02-05T11:21:20.615Z,37.00
2023-02-05T11:22:20.628Z,36.10
2023-02-05T11:23:20.602Z,40.10
2023-02-05T11:24:20.593Z,47.70
2023-02-05T11:25:20.584Z,45.60
2023-02-05T11:26:20.625Z,42.80
2023-02-05T11:27:20.568Z,42.90
2023-02-05T11:28:20.683Z,44.10
2023-02-05T11:29:20.548Z,44.60
2023-02-05T11:30:37.657Z,44.90
2023-02-05T11:31:22.605Z,48.60
2023-02-05T11:32:20.658Z,42.90
2023-02-05T11:33:20.551Z,42.00
2023-02-05T11:34:20.526Z,38.80
2023-02-05T11:35:20.519Z,46.10
2023-02-05T11:36:20.494Z,32.00
2023-02-05T11:37:20.493Z,36.20
2023-02-05T11:38:20.510Z,29.90
2023-02-05T11:39:20.515Z,29.00
2023-02-05T11:40:20.480Z,30.10
2023-02-05T11:41:20.461Z,28.70
2023-02-05T11:42:20.468Z,28.70
2023-02-05T11:43:20.469Z,30.50
2023-02-05T11:44:20.452Z,41.60
2023-02-05T11:45:20.429Z,31.90
2023-02-05T11:46:21.524Z,27.00
2023-02-05T11:47:20.416Z,31.40
2023-02-05T11:48:20.432Z,26.50
2023-02-05T11:49:20.421Z,29.00
2023-02-05T11:50:20.394Z,31.60
2023-02-05T11:51:20.444Z,30.80
2023-02-05T11:52:20.383Z,30.70
2023-02-05T11:53:20.399Z,30.90
2023-02-05T11:54:20.431Z,29.80
2023-02-05T11:55:20.356Z,30.90
2023-02-05T11:56:22.300Z,30.90
2023-02-05T11:57:21.361Z,31.60
2023-02-05T11:58:31.468Z,32.40
2023-02-05T11:59:22.409Z,31.70
2023-02-05T12:00:20.320Z,30.30
2023-02-05T12:01:20.310Z,29.80
2023-02-05T12:02:22.093Z,30.90
2023-02-05T12:03:21.391Z,30.90
2023-02-05T12:04:20.299Z,30.20
2023-02-05T12:05:20.299Z,30.40
2023-02-05T12:06:20.276Z,31.00
2023-02-05T12:07:20.265Z,31.00
2023-02-05T12:08:20.286Z,28.50
2023-02-05T12:09:20.249Z,28.20
2023-02-05T12:10:20.257Z,28.40
2023-02-05T12:11:20.244Z,28.90
2023-02-05T12:12:20.305Z,28.20
2023-02-05T12:13:20.217Z,28.90
2023-02-05T12:14:20.268Z,27.90
2023-02-05T12:15:20.202Z,27.90
2023-02-05T12:16:20.252Z,27.10
2023-02-05T12:17:20.196Z,28.00
2023-02-05T12:18:20.200Z,28.00
2023-02-05T12:19:20.199Z,28.20
2023-02-05T12:20:20.221Z,28.00
2023-02-05T12:21:20.208Z,30.20
2023-02-05T12:22:20.155Z,31.00
2023-02-05T12:23:20.185Z,30.60
2023-02-05T12:24:20.165Z,30.70
2023-02-05T12:25:20.136Z,30.90
2023-02-05T12:26:20.144Z,30.20
2023-02-05T12:27:20.117Z,29.80
2023-02-05T12:28:20.111Z,29.50
2023-02-05T12:29:20.126Z,29.40
2023-02-05T12:30:20.154Z,30.30
2023-02-05T12:31:20.115Z,28.90
2023-02-05T12:32:20.076Z,29.50
2023-02-05T12:33:20.074Z,30.70
2023-02-05T12:34:20.090Z,28.80
2023-02-05T12:35:20.051Z,28.00
2023-02-05T12:36:20.043Z,27.00
2023-02-05T12:37:20.034Z,23.80
2023-02-05T12:38:31.485Z,24.10
2023-02-05T12:39:22.054Z,23.20
2023-02-05T12:40:20.009Z,22.80
2023-02-05T12:41:20.004Z,22.00
2023-02-05T12:42:20.002Z,22.70
2023-02-05T12:43:19.994Z,22.10
2023-02-05T12:44:20.009Z,22.80
2023-02-05T12:45:19.980Z,23.00
2023-02-05T12:46:19.994Z,21.60
2023-02-05T12:47:19.967Z,21.80
2023-02-05T12:48:19.947Z,19.80
2023-02-05T12:49:19.946Z,21.70
2023-02-05T12:50:19.960Z,21.70
2023-02-05T12:51:19.924Z,22.90
2023-02-05T12:52:19.925Z,23.20
2023-02-05T12:53:19.921Z,23.60